sensor_id;sensor_type;location;lat;lon;timestamp;P1;durP1;ratioP1;P2;durP2;ratioP2
40717;SDS011;26405;51.850;-2.246;2023-04-20T00:02:14;11.23;;;3.10;;
40717;SDS011;26405;51.850;-2.246;2023-04-20T00:04:40;8.82;;;2.63;;
40717;SDS011;26405;51.850;-2.246;2023-04-20T00:07:05;9.47;;;2.77;;
40717;SDS011;26405;51.850;-2.246;2023-04-20T00:09:30;9.73;;;3.15;;
40717;SDS011;26405;51.850;-2.246;2023-04-20T00:11:56;9.20;;;2.92;;
40717;SDS011;26405;51.850;-2.246;2023-04-20T00:14:21;12.05;;;2.85;;
40717;SDS011;26405;51.850;-2.246;2023-04-20T00:16:47;7.40;;;2.47;;
40717;SDS011;26405;51.850;-2.246;2023-04-20T00:19:12;10.80;;;2.80;;
40717;SDS011;26405;51.850;-2.246;2023-04-20T00:21:37;10.63;;;2.90;;
40717;SDS011;26405;51.850;-2.246;2023-04-20T00:24:02;11.20;;;2.80;;
40717;SDS011;26405;51.850;-2.246;2023-04-20T00:26:28;7.18;;;2.65;;
40717;SDS011;26405;51.850;-2.246;2023-04-20T00:28:53;8.73;;;2.90;;
40717;SDS011;26405;51.850;-2.246;2023-04-20T00:31:19;8.60;;;2.80;;
40717;SDS011;26405;51.850;-2.246;2023-04-20T00:33:44;10.05;;;2.67;;
40717;SDS011;26405;51.850;-2.246;2023-04-20T00:36:09;8.68;;;2.67;;
40717;SDS011;26405;51.850;-2.246;2023-04-20T00:38:35;8.63;;;3.00;;
40717;SDS011;26405;51.850;-2.246;2023-04-20T00:41:00;9.55;;;3.13;;
40717;SDS011;26405;51.850;-2.246;2023-04-20T00:43:25;10.88;;;3.00;;
40717;SDS011;26405;51.850;-2.246;2023-04-20T00:45:51;10.70;;;3.30;;
40717;SDS011;26405;51.850;-2.246;2023-04-20T00:48:16;11.30;;;2.85;;
40717;SDS011;26405;51.850;-2.246;2023-04-20T00:50:42;8.95;;;2.97;;
40717;SDS011;26405;51.850;-2.246;2023-04-20T00:53:07;9.90;;;3.10;;
40717;SDS011;26405;51.850;-2.246;2023-04-20T00:55:33;14.80;;;3.40;;
40717;SDS011;26405;51.850;-2.246;2023-04-20T00:58:00;10.38;;;2.80;;
40717;SDS011;26405;51.850;-2.246;2023-04-20T01:00:25;13.57;;;3.60;;
40717;SDS011;26405;51.850;-2.246;2023-04-20T01:02:51;9.55;;;3.15;;
40717;SDS011;26405;51.850;-2.246;2023-04-20T01:05:16;11.02;;;3.13;;
40717;SDS011;26405;51.850;-2.246;2023-04-20T01:07:42;12.45;;;3.22;;
40717;SDS011;26405;51.850;-2.246;2023-04-20T01:10:07;13.55;;;3.20;;
40717;SDS011;26405;51.850;-2.246;2023-04-20T01:12:33;12.73;;;3.40;;
40717;SDS011;26405;51.850;-2.246;2023-04-20T01:14:58;12.32;;;3.50;;
40717;SDS011;26405;51.850;-2.246;2023-04-20T01:17:23;13.88;;;3.92;;
40717;SDS011;26405;51.850;-2.246;2023-04-20T01:19:49;17.60;;;3.77;;
40717;SDS011;26405;51.850;-2.246;2023-04-20T01:22:17;15.50;;;3.97;;
40717;SDS011;26405;51.850;-2.246;2023-04-20T01:24:43;13.77;;;3.63;;
40717;SDS011;26405;51.850;-2.246;2023-04-20T01:27:09;12.02;;;3.50;;
40717;SDS011;26405;51.850;-2.246;2023-04-20T01:29:35;15.45;;;3.58;;
40717;SDS011;26405;51.850;-2.246;2023-04-20T01:32:00;11.90;;;3.60;;
40717;SDS011;26405;51.850;-2.246;2023-04-20T01:34:26;12.13;;;3.50;;
40717;SDS011;26405;51.850;-2.246;2023-04-20T01:36:51;13.35;;;3.70;;
40717;SDS011;26405;51.850;-2.246;2023-04-20T01:39:16;10.25;;;3.30;;
40717;SDS011;26405;51.850;-2.246;2023-04-20T01:41:41;10.35;;;3.22;;
40717;SDS011;26405;51.850;-2.246;2023-04-20T01:44:07;13.45;;;3.45;;
40717;SDS011;26405;51.850;-2.246;2023-04-20T01:46:35;12.45;;;3.22;;
40717;SDS011;26405;51.850;-2.246;2023-04-20T01:49:00;13.02;;;3.50;;
40717;SDS011;26405;51.850;-2.246;2023-04-20T01:51:25;10.98;;;3.42;;
40717;SDS011;26405;51.850;-2.246;2023-04-20T01:53:51;15.13;;;3.55;;
40717;SDS011;26405;51.850;-2.246;2023-04-20T01:56:17;14.07;;;3.60;;
40717;SDS011;26405;51.850;-2.246;2023-04-20T01:58:42;15.73;;;3.50;;
40717;SDS011;26405;51.850;-2.246;2023-04-20T02:01:07;13.63;;;3.67;;
40717;SDS011;26405;51.850;-2.246;2023-04-20T02:03:32;9.73;;;2.90;;
40717;SDS011;26405;51.850;-2.246;2023-04-20T02:05:58;11.43;;;3.78;;
40717;SDS011;26405;51.850;-2.246;2023-04-20T02:08:23;11.13;;;3.57;;
40717;SDS011;26405;51.850;-2.246;2023-04-20T02:10:48;8.13;;;2.88;;
40717;SDS011;26405;51.850;-2.246;2023-04-20T02:13:14;10.93;;;3.35;;
40717;SDS011;26405;51.850;-2.246;2023-04-20T02:15:39;10.18;;;3.47;;
40717;SDS011;26405;51.850;-2.246;2023-04-20T02:18:04;9.85;;;3.33;;
40717;SDS011;26405;51.850;-2.246;2023-04-20T02:20:29;12.10;;;2.83;;
40717;SDS011;26405;51.850;-2.246;2023-04-20T02:22:55;8.85;;;3.20;;
40717;SDS011;26405;51.850;-2.246;2023-04-20T02:25:20;14.90;;;3.60;;
40717;SDS011;26405;51.850;-2.246;2023-04-20T02:27:45;12.32;;;3.22;;
40717;SDS011;26405;51.850;-2.246;2023-04-20T02:30:11;10.27;;;3.10;;
40717;SDS011;26405;51.850;-2.246;2023-04-20T02:32:36;11.43;;;3.60;;
40717;SDS011;26405;51.850;-2.246;2023-04-20T02:35:02;13.88;;;3.42;;
40717;SDS011;26405;51.850;-2.246;2023-04-20T02:37:28;12.18;;;4.07;;
40717;SDS011;26405;51.850;-2.246;2023-04-20T02:39:53;8.70;;;3.13;;
40717;SDS011;26405;51.850;-2.246;2023-04-20T02:42:18;12.68;;;3.47;;
40717;SDS011;26405;51.850;-2.246;2023-04-20T02:44:44;11.10;;;3.47;;
40717;SDS011;26405;51.850;-2.246;2023-04-20T02:47:09;11.20;;;3.45;;
40717;SDS011;26405;51.850;-2.246;2023-04-20T02:49:34;9.57;;;3.22;;
40717;SDS011;26405;51.850;-2.246;2023-04-20T02:52:00;10.90;;;3.37;;
40717;SDS011;26405;51.850;-2.246;2023-04-20T02:54:25;11.95;;;3.50;;
40717;SDS011;26405;51.850;-2.246;2023-04-20T02:56:50;12.53;;;3.50;;
40717;SDS011;26405;51.850;-2.246;2023-04-20T02:59:15;10.75;;;3.65;;
40717;SDS011;26405;51.850;-2.246;2023-04-20T03:01:41;15.75;;;3.90;;
40717;SDS011;26405;51.850;-2.246;2023-04-20T03:04:06;11.00;;;3.50;;
40717;SDS011;26405;51.850;-2.246;2023-04-20T03:06:31;9.93;;;3.30;;
40717;SDS011;26405;51.850;-2.246;2023-04-20T03:08:57;8.20;;;3.50;;
40717;SDS011;26405;51.850;-2.246;2023-04-20T03:11:22;11.13;;;3.50;;
40717;SDS011;26405;51.850;-2.246;2023-04-20T03:13:47;10.33;;;3.40;;
40717;SDS011;26405;51.850;-2.246;2023-04-20T03:16:13;12.65;;;3.50;;
40717;SDS011;26405;51.850;-2.246;2023-04-20T03:18:38;12.15;;;3.70;;
40717;SDS011;26405;51.850;-2.246;2023-04-20T03:21:04;9.00;;;3.70;;
40717;SDS011;26405;51.850;-2.246;2023-04-20T03:23:29;11.85;;;3.85;;
40717;SDS011;26405;51.850;-2.246;2023-04-20T03:25:55;14.32;;;4.10;;
40717;SDS011;26405;51.850;-2.246;2023-04-20T03:28:21;15.38;;;3.67;;
40717;SDS011;26405;51.850;-2.246;2023-04-20T03:30:46;13.35;;;3.78;;
40717;SDS011;26405;51.850;-2.246;2023-04-20T03:33:11;14.13;;;4.00;;
40717;SDS011;26405;51.850;-2.246;2023-04-20T03:35:36;16.02;;;4.38;;
40717;SDS011;26405;51.850;-2.246;2023-04-20T03:38:03;11.80;;;3.70;;
40717;SDS011;26405;51.850;-2.246;2023-04-20T03:40:28;11.75;;;3.90;;
40717;SDS011;26405;51.850;-2.246;2023-04-20T03:42:54;16.42;;;3.97;;
40717;SDS011;26405;51.850;-2.246;2023-04-20T03:45:20;10.43;;;4.43;;
40717;SDS011;26405;51.850;-2.246;2023-04-20T03:47:45;12.70;;;4.03;;
40717;SDS011;26405;51.850;-2.246;2023-04-20T03:50:10;12.38;;;4.20;;
40717;SDS011;26405;51.850;-2.246;2023-04-20T03:52:35;13.05;;;3.83;;
40717;SDS011;26405;51.850;-2.246;2023-04-20T03:55:01;10.50;;;3.78;;
40717;SDS011;26405;51.850;-2.246;2023-04-20T03:57:26;11.80;;;4.30;;
40717;SDS011;26405;51.850;-2.246;2023-04-20T03:59:51;15.13;;;4.45;;
40717;SDS011;26405;51.850;-2.246;2023-04-20T04:02:16;14.90;;;4.30;;
40717;SDS011;26405;51.850;-2.246;2023-04-20T04:04:42;13.10;;;3.97;;
40717;SDS011;26405;51.850;-2.246;2023-04-20T04:07:07;14.80;;;4.60;;
40717;SDS011;26405;51.850;-2.246;2023-04-20T04:09:33;13.43;;;3.90;;
40717;SDS011;26405;51.850;-2.246;2023-04-20T04:11:58;12.53;;;4.33;;
40717;SDS011;26405;51.850;-2.246;2023-04-20T04:14:23;16.17;;;4.32;;
40717;SDS011;26405;51.850;-2.246;2023-04-20T04:16:48;10.30;;;3.92;;
40717;SDS011;26405;51.850;-2.246;2023-04-20T04:19:14;13.90;;;4.15;;
40717;SDS011;26405;51.850;-2.246;2023-04-20T04:21:39;15.95;;;4.20;;
40717;SDS011;26405;51.850;-2.246;2023-04-20T04:24:05;13.77;;;4.35;;
40717;SDS011;26405;51.850;-2.246;2023-04-20T04:26:31;12.88;;;3.78;;
40717;SDS011;26405;51.850;-2.246;2023-04-20T04:28:57;14.82;;;4.40;;
40717;SDS011;26405;51.850;-2.246;2023-04-20T04:31:22;11.35;;;3.72;;
40717;SDS011;26405;51.850;-2.246;2023-04-20T04:33:48;16.02;;;4.50;;
40717;SDS011;26405;51.850;-2.246;2023-04-20T04:36:14;13.88;;;4.50;;
40717;SDS011;26405;51.850;-2.246;2023-04-20T04:38:39;15.93;;;4.57;;
40717;SDS011;26405;51.850;-2.246;2023-04-20T04:41:05;17.98;;;5.32;;
40717;SDS011;26405;51.850;-2.246;2023-04-20T04:43:31;13.27;;;4.47;;
40717;SDS011;26405;51.850;-2.246;2023-04-20T04:45:57;12.50;;;4.30;;
40717;SDS011;26405;51.850;-2.246;2023-04-20T04:48:22;15.77;;;4.82;;
40717;SDS011;26405;51.850;-2.246;2023-04-20T04:50:48;14.35;;;4.65;;
40717;SDS011;26405;51.850;-2.246;2023-04-20T04:53:13;13.02;;;4.75;;
40717;SDS011;26405;51.850;-2.246;2023-04-20T04:55:38;14.95;;;4.60;;
40717;SDS011;26405;51.850;-2.246;2023-04-20T04:58:03;13.70;;;4.25;;
40717;SDS011;26405;51.850;-2.246;2023-04-20T05:00:29;13.63;;;4.60;;
40717;SDS011;26405;51.850;-2.246;2023-04-20T05:02:55;13.85;;;4.47;;
40717;SDS011;26405;51.850;-2.246;2023-04-20T05:05:20;15.30;;;4.38;;
40717;SDS011;26405;51.850;-2.246;2023-04-20T05:07:46;15.50;;;5.38;;
40717;SDS011;26405;51.850;-2.246;2023-04-20T05:10:11;14.82;;;4.68;;
40717;SDS011;26405;51.850;-2.246;2023-04-20T05:12:37;15.18;;;4.88;;
40717;SDS011;26405;51.850;-2.246;2023-04-20T05:15:03;14.23;;;4.13;;
40717;SDS011;26405;51.850;-2.246;2023-04-20T05:17:28;14.35;;;4.68;;
40717;SDS011;26405;51.850;-2.246;2023-04-20T05:19:53;15.27;;;5.53;;
40717;SDS011;26405;51.850;-2.246;2023-04-20T05:22:18;13.43;;;4.65;;
40717;SDS011;26405;51.850;-2.246;2023-04-20T05:24:44;20.88;;;5.28;;
40717;SDS011;26405;51.850;-2.246;2023-04-20T05:27:09;14.73;;;4.50;;
40717;SDS011;26405;51.850;-2.246;2023-04-20T05:29:35;15.52;;;5.03;;
40717;SDS011;26405;51.850;-2.246;2023-04-20T05:32:01;16.17;;;4.68;;
40717;SDS011;26405;51.850;-2.246;2023-04-20T05:34:26;13.15;;;4.55;;
40717;SDS011;26405;51.850;-2.246;2023-04-20T05:36:51;17.20;;;5.33;;
40717;SDS011;26405;51.850;-2.246;2023-04-20T05:39:18;16.83;;;5.65;;
40717;SDS011;26405;51.850;-2.246;2023-04-20T05:41:44;16.15;;;5.03;;
40717;SDS011;26405;51.850;-2.246;2023-04-20T05:44:10;18.23;;;5.40;;
40717;SDS011;26405;51.850;-2.246;2023-04-20T05:46:35;18.67;;;5.35;;
40717;SDS011;26405;51.850;-2.246;2023-04-20T05:49:00;16.33;;;5.20;;
40717;SDS011;26405;51.850;-2.246;2023-04-20T05:51:25;18.30;;;5.65;;
40717;SDS011;26405;51.850;-2.246;2023-04-20T05:53:54;16.83;;;4.72;;
40717;SDS011;26405;51.850;-2.246;2023-04-20T05:56:19;17.77;;;5.47;;
40717;SDS011;26405;51.850;-2.246;2023-04-20T05:58:45;17.67;;;4.80;;
40717;SDS011;26405;51.850;-2.246;2023-04-20T06:01:10;14.88;;;5.00;;
40717;SDS011;26405;51.850;-2.246;2023-04-20T06:03:35;18.88;;;5.50;;
40717;SDS011;26405;51.850;-2.246;2023-04-20T06:06:00;16.73;;;5.03;;
40717;SDS011;26405;51.850;-2.246;2023-04-20T06:08:26;15.75;;;5.15;;
40717;SDS011;26405;51.850;-2.246;2023-04-20T06:10:54;15.85;;;5.15;;
40717;SDS011;26405;51.850;-2.246;2023-04-20T06:13:21;17.90;;;5.43;;
40717;SDS011;26405;51.850;-2.246;2023-04-20T06:15:46;16.77;;;5.20;;
40717;SDS011;26405;51.850;-2.246;2023-04-20T06:18:11;18.40;;;5.40;;
40717;SDS011;26405;51.850;-2.246;2023-04-20T06:20:37;16.90;;;4.57;;
40717;SDS011;26405;51.850;-2.246;2023-04-20T06:23:03;20.30;;;5.38;;
40717;SDS011;26405;51.850;-2.246;2023-04-20T06:25:28;15.30;;;5.30;;
40717;SDS011;26405;51.850;-2.246;2023-04-20T06:27:54;17.52;;;5.45;;
40717;SDS011;26405;51.850;-2.246;2023-04-20T06:30:19;18.80;;;5.10;;
40717;SDS011;26405;51.850;-2.246;2023-04-20T06:32:44;15.20;;;4.68;;
40717;SDS011;26405;51.850;-2.246;2023-04-20T06:35:09;19.48;;;5.50;;
40717;SDS011;26405;51.850;-2.246;2023-04-20T06:37:35;17.00;;;5.72;;
40717;SDS011;26405;51.850;-2.246;2023-04-20T06:40:00;16.05;;;5.30;;
40717;SDS011;26405;51.850;-2.246;2023-04-20T06:42:26;15.70;;;5.45;;
40717;SDS011;26405;51.850;-2.246;2023-04-20T06:44:51;17.30;;;5.40;;
40717;SDS011;26405;51.850;-2.246;2023-04-20T06:47:16;17.07;;;5.60;;
40717;SDS011;26405;51.850;-2.246;2023-04-20T06:49:41;15.20;;;5.18;;
40717;SDS011;26405;51.850;-2.246;2023-04-20T06:52:07;18.60;;;5.75;;
40717;SDS011;26405;51.850;-2.246;2023-04-20T06:54:32;20.08;;;5.75;;
40717;SDS011;26405;51.850;-2.246;2023-04-20T06:56:58;19.83;;;5.82;;
40717;SDS011;26405;51.850;-2.246;2023-04-20T06:59:23;20.40;;;6.03;;
40717;SDS011;26405;51.850;-2.246;2023-04-20T07:01:48;19.17;;;5.90;;
40717;SDS011;26405;51.850;-2.246;2023-04-20T07:04:13;17.80;;;5.70;;
40717;SDS011;26405;51.850;-2.246;2023-04-20T07:06:39;18.98;;;5.25;;
40717;SDS011;26405;51.850;-2.246;2023-04-20T07:09:04;17.88;;;5.65;;
40717;SDS011;26405;51.850;-2.246;2023-04-20T07:11:29;22.33;;;4.90;;
40717;SDS011;26405;51.850;-2.246;2023-04-20T07:13:55;17.00;;;5.15;;
40717;SDS011;26405;51.850;-2.246;2023-04-20T07:16:20;18.55;;;5.30;;
40717;SDS011;26405;51.850;-2.246;2023-04-20T07:18:45;16.00;;;5.20;;
40717;SDS011;26405;51.850;-2.246;2023-04-20T07:21:11;16.03;;;4.87;;
40717;SDS011;26405;51.850;-2.246;2023-04-20T07:23:36;19.58;;;4.90;;
40717;SDS011;26405;51.850;-2.246;2023-04-20T07:26:01;15.77;;;4.63;;
40717;SDS011;26405;51.850;-2.246;2023-04-20T07:28:26;15.67;;;5.40;;
40717;SDS011;26405;51.850;-2.246;2023-04-20T07:30:52;14.73;;;5.10;;
40717;SDS011;26405;51.850;-2.246;2023-04-20T07:33:17;17.73;;;5.40;;
40717;SDS011;26405;51.850;-2.246;2023-04-20T07:35:42;19.55;;;5.05;;
40717;SDS011;26405;51.850;-2.246;2023-04-20T07:38:07;19.23;;;4.90;;
40717;SDS011;26405;51.850;-2.246;2023-04-20T07:40:33;17.65;;;5.00;;
40717;SDS011;26405;51.850;-2.246;2023-04-20T07:42:58;15.13;;;4.90;;
40717;SDS011;26405;51.850;-2.246;2023-04-20T07:45:23;16.30;;;5.07;;
40717;SDS011;26405;51.850;-2.246;2023-04-20T07:47:48;18.17;;;5.07;;
40717;SDS011;26405;51.850;-2.246;2023-04-20T07:50:16;16.52;;;4.90;;
40717;SDS011;26405;51.850;-2.246;2023-04-20T07:52:41;17.60;;;4.47;;
40717;SDS011;26405;51.850;-2.246;2023-04-20T07:55:08;19.23;;;5.13;;
40717;SDS011;26405;51.850;-2.246;2023-04-20T07:57:37;18.73;;;4.75;;
40717;SDS011;26405;51.850;-2.246;2023-04-20T08:00:03;21.70;;;4.55;;
40717;SDS011;26405;51.850;-2.246;2023-04-20T08:02:32;16.83;;;4.90;;
40717;SDS011;26405;51.850;-2.246;2023-04-20T08:04:57;21.55;;;5.20;;
40717;SDS011;26405;51.850;-2.246;2023-04-20T08:07:22;18.98;;;4.80;;
40717;SDS011;26405;51.850;-2.246;2023-04-20T08:09:48;17.55;;;4.57;;
40717;SDS011;26405;51.850;-2.246;2023-04-20T08:12:13;17.88;;;5.30;;
40717;SDS011;26405;51.850;-2.246;2023-04-20T08:14:38;18.33;;;4.70;;
40717;SDS011;26405;51.850;-2.246;2023-04-20T08:17:05;16.83;;;4.55;;
40717;SDS011;26405;51.850;-2.246;2023-04-20T08:19:30;17.38;;;4.63;;
40717;SDS011;26405;51.850;-2.246;2023-04-20T08:21:55;17.45;;;4.72;;
40717;SDS011;26405;51.850;-2.246;2023-04-20T08:24:20;14.70;;;4.67;;
40717;SDS011;26405;51.850;-2.246;2023-04-20T08:26:46;15.32;;;4.88;;
40717;SDS011;26405;51.850;-2.246;2023-04-20T08:29:11;15.70;;;4.68;;
40717;SDS011;26405;51.850;-2.246;2023-04-20T08:31:36;16.70;;;4.57;;
40717;SDS011;26405;51.850;-2.246;2023-04-20T08:34:02;15.15;;;4.57;;
40717;SDS011;26405;51.850;-2.246;2023-04-20T08:36:27;16.60;;;5.28;;
40717;SDS011;26405;51.850;-2.246;2023-04-20T08:39:04;18.15;;;4.65;;
40717;SDS011;26405;51.850;-2.246;2023-04-20T08:41:30;16.05;;;4.72;;
40717;SDS011;26405;51.850;-2.246;2023-04-20T08:43:55;16.45;;;4.88;;
40717;SDS011;26405;51.850;-2.246;2023-04-20T08:46:21;16.58;;;4.60;;
40717;SDS011;26405;51.850;-2.246;2023-04-20T08:48:46;13.82;;;3.97;;
40717;SDS011;26405;51.850;-2.246;2023-04-20T08:51:13;12.55;;;4.18;;
40717;SDS011;26405;51.850;-2.246;2023-04-20T08:53:39;13.82;;;4.22;;
40717;SDS011;26405;51.850;-2.246;2023-04-20T08:56:04;13.57;;;4.15;;
40717;SDS011;26405;51.850;-2.246;2023-04-20T08:58:30;13.18;;;3.67;;
40717;SDS011;26405;51.850;-2.246;2023-04-20T09:00:58;12.75;;;4.05;;
40717;SDS011;26405;51.850;-2.246;2023-04-20T09:05:59;9.73;;;3.83;;
40717;SDS011;26405;51.850;-2.246;2023-04-20T09:08:33;13.52;;;3.75;;
40717;SDS011;26405;51.850;-2.246;2023-04-20T09:10:58;11.07;;;3.65;;
40717;SDS011;26405;51.850;-2.246;2023-04-20T09:13:24;11.35;;;3.45;;
40717;SDS011;26405;51.850;-2.246;2023-04-20T09:15:49;11.80;;;3.80;;
40717;SDS011;26405;51.850;-2.246;2023-04-20T09:18:15;13.05;;;3.80;;
40717;SDS011;26405;51.850;-2.246;2023-04-20T09:20:41;13.32;;;3.75;;
40717;SDS011;26405;51.850;-2.246;2023-04-20T09:23:13;12.35;;;3.60;;
40717;SDS011;26405;51.850;-2.246;2023-04-20T09:25:39;12.52;;;3.67;;
40717;SDS011;26405;51.850;-2.246;2023-04-20T09:28:08;10.52;;;3.40;;
40717;SDS011;26405;51.850;-2.246;2023-04-20T09:30:44;8.05;;;3.40;;
40717;SDS011;26405;51.850;-2.246;2023-04-20T09:33:09;11.15;;;3.53;;
40717;SDS011;26405;51.850;-2.246;2023-04-20T09:35:40;10.88;;;3.55;;
40717;SDS011;26405;51.850;-2.246;2023-04-20T09:38:09;10.45;;;3.33;;
40717;SDS011;26405;51.850;-2.246;2023-04-20T09:40:35;13.02;;;3.50;;
40717;SDS011;26405;51.850;-2.246;2023-04-20T09:43:12;9.10;;;3.40;;
40717;SDS011;26405;51.850;-2.246;2023-04-20T09:45:37;13.18;;;4.30;;
40717;SDS011;26405;51.850;-2.246;2023-04-20T09:48:03;15.98;;;4.72;;
40717;SDS011;26405;51.850;-2.246;2023-04-20T09:50:29;13.63;;;4.32;;
40717;SDS011;26405;51.850;-2.246;2023-04-20T09:52:55;13.13;;;4.40;;
40717;SDS011;26405;51.850;-2.246;2023-04-20T09:55:21;12.35;;;4.55;;
40717;SDS011;26405;51.850;-2.246;2023-04-20T09:57:48;13.13;;;3.90;;
40717;SDS011;26405;51.850;-2.246;2023-04-20T10:00:13;13.38;;;3.65;;
40717;SDS011;26405;51.850;-2.246;2023-04-20T10:02:39;10.17;;;3.70;;
40717;SDS011;26405;51.850;-2.246;2023-04-20T10:05:04;13.55;;;4.35;;
40717;SDS011;26405;51.850;-2.246;2023-04-20T10:07:31;14.25;;;4.90;;
40717;SDS011;26405;51.850;-2.246;2023-04-20T10:10:04;9.45;;;3.42;;
40717;SDS011;26405;51.850;-2.246;2023-04-20T10:12:30;8.23;;;3.78;;
40717;SDS011;26405;51.850;-2.246;2023-04-20T10:14:55;6.82;;;3.35;;
40717;SDS011;26405;51.850;-2.246;2023-04-20T10:17:28;16.23;;;7.07;;
40717;SDS011;26405;51.850;-2.246;2023-04-20T10:19:54;10.52;;;4.20;;
40717;SDS011;26405;51.850;-2.246;2023-04-20T10:22:28;7.93;;;3.70;;
40717;SDS011;26405;51.850;-2.246;2023-04-20T10:24:58;10.63;;;3.50;;
40717;SDS011;26405;51.850;-2.246;2023-04-20T10:27:23;10.45;;;3.80;;
40717;SDS011;26405;51.850;-2.246;2023-04-20T10:29:49;7.07;;;3.45;;
40717;SDS011;26405;51.850;-2.246;2023-04-20T10:32:20;11.13;;;3.85;;
40717;SDS011;26405;51.850;-2.246;2023-04-20T10:34:46;15.82;;;5.40;;
40717;SDS011;26405;51.850;-2.246;2023-04-20T10:37:12;16.20;;;5.77;;
40717;SDS011;26405;51.850;-2.246;2023-04-20T10:39:44;15.57;;;4.20;;
40717;SDS011;26405;51.850;-2.246;2023-04-20T10:42:10;15.90;;;3.95;;
40717;SDS011;26405;51.850;-2.246;2023-04-20T10:44:35;10.93;;;3.70;;
40717;SDS011;26405;51.850;-2.246;2023-04-20T10:47:10;9.57;;;3.60;;
40717;SDS011;26405;51.850;-2.246;2023-04-20T10:49:36;10.88;;;3.88;;
40717;SDS011;26405;51.850;-2.246;2023-04-20T10:52:02;15.13;;;5.10;;
40717;SDS011;26405;51.850;-2.246;2023-04-20T10:54:34;13.40;;;3.30;;
40717;SDS011;26405;51.850;-2.246;2023-04-20T10:57:00;16.25;;;3.85;;
40717;SDS011;26405;51.850;-2.246;2023-04-20T10:59:27;9.23;;;3.47;;
40717;SDS011;26405;51.850;-2.246;2023-04-20T11:01:52;8.97;;;3.00;;
40717;SDS011;26405;51.850;-2.246;2023-04-20T11:06:45;13.33;;;3.40;;
40717;SDS011;26405;51.850;-2.246;2023-04-20T11:09:30;8.52;;;3.50;;
40717;SDS011;26405;51.850;-2.246;2023-04-20T11:11:58;8.70;;;3.10;;
40717;SDS011;26405;51.850;-2.246;2023-04-20T11:14:24;10.80;;;3.30;;
40717;SDS011;26405;51.850;-2.246;2023-04-20T11:16:52;9.13;;;3.43;;
40717;SDS011;26405;51.850;-2.246;2023-04-20T11:19:22;13.10;;;3.78;;
40717;SDS011;26405;51.850;-2.246;2023-04-20T11:21:47;9.13;;;3.50;;
40717;SDS011;26405;51.850;-2.246;2023-04-20T11:24:19;11.77;;;4.07;;
40717;SDS011;26405;51.850;-2.246;2023-04-20T11:26:45;13.30;;;4.80;;
40717;SDS011;26405;51.850;-2.246;2023-04-20T11:29:10;16.17;;;5.30;;
40717;SDS011;26405;51.850;-2.246;2023-04-20T11:31:35;9.40;;;3.23;;
40717;SDS011;26405;51.850;-2.246;2023-04-20T11:34:01;10.77;;;4.20;;
40717;SDS011;26405;51.850;-2.246;2023-04-20T11:38:53;6.03;;;3.33;;
40717;SDS011;26405;51.850;-2.246;2023-04-20T11:41:19;9.50;;;3.42;;
40717;SDS011;26405;51.850;-2.246;2023-04-20T11:43:45;10.00;;;3.77;;
40717;SDS011;26405;51.850;-2.246;2023-04-20T11:46:17;14.67;;;3.10;;
40717;SDS011;26405;51.850;-2.246;2023-04-20T11:48:43;10.75;;;3.88;;
40717;SDS011;26405;51.850;-2.246;2023-04-20T11:51:09;9.63;;;3.07;;
40717;SDS011;26405;51.850;-2.246;2023-04-20T11:53:34;11.80;;;3.40;;
40717;SDS011;26405;51.850;-2.246;2023-04-20T11:55:59;12.43;;;3.53;;
40717;SDS011;26405;51.850;-2.246;2023-04-20T11:58:24;11.03;;;3.43;;
40717;SDS011;26405;51.850;-2.246;2023-04-20T12:00:50;8.63;;;3.20;;
40717;SDS011;26405;51.850;-2.246;2023-04-20T12:03:15;10.10;;;3.57;;
40717;SDS011;26405;51.850;-2.246;2023-04-20T12:05:40;10.57;;;3.43;;
40717;SDS011;26405;51.850;-2.246;2023-04-20T12:08:07;9.98;;;3.67;;
40717;SDS011;26405;51.850;-2.246;2023-04-20T12:10:32;11.47;;;3.63;;
40717;SDS011;26405;51.850;-2.246;2023-04-20T12:12:57;6.70;;;3.07;;
40717;SDS011;26405;51.850;-2.246;2023-04-20T12:15:24;8.15;;;3.20;;
40717;SDS011;26405;51.850;-2.246;2023-04-20T12:17:49;9.30;;;3.67;;
40717;SDS011;26405;51.850;-2.246;2023-04-20T12:20:14;7.27;;;3.40;;
40717;SDS011;26405;51.850;-2.246;2023-04-20T12:22:39;7.90;;;3.40;;
40717;SDS011;26405;51.850;-2.246;2023-04-20T12:25:05;10.73;;;4.00;;
40717;SDS011;26405;51.850;-2.246;2023-04-20T12:27:30;8.70;;;3.67;;
40717;SDS011;26405;51.850;-2.246;2023-04-20T12:29:56;6.13;;;3.33;;
40717;SDS011;26405;51.850;-2.246;2023-04-20T12:32:21;7.90;;;3.37;;
40717;SDS011;26405;51.850;-2.246;2023-04-20T12:34:46;9.40;;;3.33;;
40717;SDS011;26405;51.850;-2.246;2023-04-20T12:37:11;8.07;;;3.43;;
40717;SDS011;26405;51.850;-2.246;2023-04-20T12:39:38;10.13;;;3.15;;
40717;SDS011;26405;51.850;-2.246;2023-04-20T12:42:04;11.77;;;3.27;;
40717;SDS011;26405;51.850;-2.246;2023-04-20T12:44:29;12.33;;;3.57;;
40717;SDS011;26405;51.850;-2.246;2023-04-20T12:46:54;8.33;;;3.47;;
40717;SDS011;26405;51.850;-2.246;2023-04-20T12:49:20;9.43;;;3.33;;
40717;SDS011;26405;51.850;-2.246;2023-04-20T12:51:45;9.27;;;3.40;;
40717;SDS011;26405;51.850;-2.246;2023-04-20T12:54:10;9.33;;;3.90;;
40717;SDS011;26405;51.850;-2.246;2023-04-20T12:56:36;7.87;;;3.30;;
40717;SDS011;26405;51.850;-2.246;2023-04-20T12:59:01;13.37;;;3.50;;
40717;SDS011;26405;51.850;-2.246;2023-04-20T13:01:26;10.80;;;3.10;;
40717;SDS011;26405;51.850;-2.246;2023-04-20T13:03:51;9.63;;;3.57;;
40717;SDS011;26405;51.850;-2.246;2023-04-20T13:06:16;6.60;;;3.20;;
40717;SDS011;26405;51.850;-2.246;2023-04-20T13:08:42;9.53;;;3.20;;
40717;SDS011;26405;51.850;-2.246;2023-04-20T13:11:09;9.23;;;3.33;;
40717;SDS011;26405;51.850;-2.246;2023-04-20T13:13:35;6.43;;;3.10;;
40717;SDS011;26405;51.850;-2.246;2023-04-20T13:16:01;7.00;;;3.20;;
40717;SDS011;26405;51.850;-2.246;2023-04-20T13:18:26;9.43;;;3.17;;
40717;SDS011;26405;51.850;-2.246;2023-04-20T13:20:52;8.83;;;3.40;;
40717;SDS011;26405;51.850;-2.246;2023-04-20T13:23:17;9.23;;;3.47;;
40717;SDS011;26405;51.850;-2.246;2023-04-20T13:25:42;11.90;;;3.40;;
40717;SDS011;26405;51.850;-2.246;2023-04-20T13:28:08;13.73;;;3.43;;
40717;SDS011;26405;51.850;-2.246;2023-04-20T13:30:33;9.33;;;3.20;;
40717;SDS011;26405;51.850;-2.246;2023-04-20T13:32:58;9.00;;;3.33;;
40717;SDS011;26405;51.850;-2.246;2023-04-20T13:35:24;10.23;;;3.20;;
40717;SDS011;26405;51.850;-2.246;2023-04-20T13:37:49;10.50;;;3.47;;
40717;SDS011;26405;51.850;-2.246;2023-04-20T13:40:14;9.50;;;3.23;;
40717;SDS011;26405;51.850;-2.246;2023-04-20T13:42:40;9.77;;;3.20;;
40717;SDS011;26405;51.850;-2.246;2023-04-20T13:45:05;10.70;;;2.93;;
40717;SDS011;26405;51.850;-2.246;2023-04-20T13:47:30;7.13;;;3.10;;
40717;SDS011;26405;51.850;-2.246;2023-04-20T13:49:56;10.50;;;3.33;;
40717;SDS011;26405;51.850;-2.246;2023-04-20T13:52:21;9.33;;;3.07;;
40717;SDS011;26405;51.850;-2.246;2023-04-20T13:54:47;10.93;;;3.13;;
40717;SDS011;26405;51.850;-2.246;2023-04-20T13:57:12;12.73;;;3.67;;
40717;SDS011;26405;51.850;-2.246;2023-04-20T13:59:37;15.87;;;3.03;;
40717;SDS011;26405;51.850;-2.246;2023-04-20T14:02:03;9.77;;;3.00;;
40717;SDS011;26405;51.850;-2.246;2023-04-20T14:04:28;10.77;;;2.80;;
40717;SDS011;26405;51.850;-2.246;2023-04-20T14:06:54;4.37;;;2.50;;
40717;SDS011;26405;51.850;-2.246;2023-04-20T14:09:19;4.87;;;2.50;;
40717;SDS011;26405;51.850;-2.246;2023-04-20T14:11:45;4.80;;;2.67;;
40717;SDS011;26405;51.850;-2.246;2023-04-20T14:14:11;9.33;;;3.00;;
40717;SDS011;26405;51.850;-2.246;2023-04-20T14:16:42;7.43;;;2.50;;
40717;SDS011;26405;51.850;-2.246;2023-04-20T14:19:08;8.15;;;3.22;;
40717;SDS011;26405;51.850;-2.246;2023-04-20T14:21:33;7.17;;;2.73;;
40717;SDS011;26405;51.850;-2.246;2023-04-20T14:23:58;11.30;;;2.93;;